Time;durP1;ratioP1;P1;durP2;ratioP2;P2;SDS_P1;SDS_P2;PMS_P1;PMS_P2;Temp;Humidity;BMP_temperature;BMP_pressure;BME280_temperature;BME280_humidity;BME280_pressure;Samples;Min_cycle;Max_cycle;Signal;HPM_P1;HPM_P2
2023/04/06 00:00:48;;;;;;;10.43;9.32;;;;;;;2.81;78.18;101752.91;5065245;28;20036;-74
2023/04/06 00:03:13;;;;;;;10.70;9.43;;;;;;;2.81;78.99;101744.78;5064896;28;20482;-73
2023/04/06 00:05:39;;;;;;;10.25;8.88;;;;;;;2.77;77.92;101743.38;5066031;28;20033;-69
2023/04/06 00:08:04;;;;;;;12.85;8.63;;;;;;;2.77;79.87;101741.53;5066158;28;20036;-72
2023/04/06 00:10:30;;;;;;;11.25;9.48;;;;;;;2.77;78.86;101743.38;5066780;28;20039;-72
2023/04/06 00:12:57;;;;;;;10.00;9.00;;;;;;;2.72;79.11;101743.00;5066038;28;20034;-73
2023/04/06 00:15:22;;;;;;;10.25;9.15;;;;;;;2.68;79.19;101744.31;5066903;28;20114;-71
2023/04/06 00:17:47;;;;;;;10.93;9.82;;;;;;;2.68;79.65;101744.31;5056160;28;20067;-70
2023/04/06 00:20:13;;;;;;;11.40;10.20;;;;;;;2.63;80.36;101742.06;5065506;28;20036;-70
2023/04/06 00:22:38;;;;;;;11.13;10.02;;;;;;;2.60;80.00;101737.84;5064685;28;20467;-72
2023/04/06 00:25:03;;;;;;;10.90;9.80;;;;;;;2.57;80.59;101730.00;5066916;28;20049;-68
2023/04/06 00:27:29;;;;;;;10.75;9.65;;;;;;;2.56;80.08;101743.72;5065150;28;20051;-73
2023/04/06 00:29:54;;;;;;;10.20;9.20;;;;;;;2.53;80.22;101738.59;5060846;28;20569;-74
2023/04/06 00:32:20;;;;;;;10.23;9.13;;;;;;;2.54;80.03;101733.03;5045413;28;20033;-69
2023/04/06 00:34:45;;;;;;;10.60;9.50;;;;;;;2.52;82.02;101720.63;5059106;28;20041;-69
2023/04/06 00:37:11;;;;;;;10.95;9.85;;;;;;;2.52;82.68;101732.31;5065217;28;20494;-74
2023/04/06 00:39:37;;;;;;;12.15;10.95;;;;;;;2.52;84.46;101718.78;5066325;28;20013;-73
2023/04/06 00:42:11;;;;;;;10.90;9.80;;;;;;;2.55;83.50;101723.88;5065028;28;20016;-71
2023/04/06 00:44:36;;;;;;;10.18;9.07;;;;;;;2.50;83.71;101717.25;5065867;28;20032;-73
2023/04/06 00:47:02;;;;;;;11.23;9.95;;;;;;;2.48;82.69;101716.53;5052442;28;20428;-73
2023/04/06 00:49:27;;;;;;;10.82;9.73;;;;;;;2.47;81.68;101712.13;5063417;28;20103;-74
2023/04/06 00:51:52;;;;;;;11.80;10.60;;;;;;;2.46;83.41;101703.13;5065953;28;20024;-70
2023/04/06 00:54:18;;;;;;;11.88;10.07;;;;;;;2.49;81.75;101704.69;5065512;28;20020;-68
2023/04/06 00:56:43;;;;;;;11.68;10.05;;;;;;;2.49;81.37;101704.69;5065674;28;20020;-72
2023/04/06 00:59:10;;;;;;;10.75;9.45;;;;;;;2.48;79.29;101701.09;5069520;28;20044;-73
2023/04/06 01:01:36;;;;;;;11.23;9.85;;;;;;;2.48;77.58;101697.53;5050313;28;20047;-70
2023/04/06 01:04:02;;;;;;;10.90;9.65;;;;;;;2.52;77.79;101698.94;5051072;28;20029;-65
2023/04/06 01:06:28;;;;;;;10.57;9.52;;;;;;;2.57;77.19;101688.47;5069583;28;20033;-67
2023/04/06 01:08:53;;;;;;;10.70;9.55;;;;;;;2.60;76.86;101683.59;5069424;28;20031;-73
2023/04/06 01:11:18;;;;;;;10.57;9.48;;;;;;;2.61;77.11;101689.88;5069090;28;20020;-68
2023/04/06 01:13:43;;;;;;;11.15;9.73;;;;;;;2.66;76.65;101683.97;5069180;28;20032;-73
2023/04/06 01:16:09;;;;;;;11.48;9.73;;;;;;;2.69;76.59;101681.81;5069504;28;20021;-73
2023/04/06 01:18:35;;;;;;;10.25;9.15;;;;;;;2.68;76.05;101673.81;5067428;28;20343;-64
2023/04/06 01:21:01;;;;;;;11.18;9.57;;;;;;;2.68;76.14;101679.22;5068418;28;20137;-67
2023/04/06 01:23:26;;;;;;;10.70;9.55;;;;;;;2.66;75.53;101684.81;5068522;28;20104;-72
2023/04/06 01:25:51;;;;;;;10.80;9.25;;;;;;;2.64;75.69;101683.28;5069495;28;20135;-73
2023/04/06 01:28:17;;;;;;;11.10;9.70;;;;;;;2.63;75.17;101673.44;5069089;28;20064;-71
2023/04/06 01:30:42;;;;;;;10.52;8.77;;;;;;;2.62;74.98;101677.16;5051337;28;20031;-73
2023/04/06 01:33:07;;;;;;;10.70;9.60;;;;;;;2.64;76.06;101672.44;5066577;28;20060;-75
2023/04/06 01:35:32;;;;;;;10.82;9.73;;;;;;;2.67;76.70;101669.41;5068647;28;20056;-70
2023/04/06 01:37:58;;;;;;;10.80;8.98;;;;;;;2.74;76.09;101662.34;5068890;28;20029;-64
2023/04/06 01:40:23;;;;;;;12.30;9.45;;;;;;;2.79;75.17;101660.00;5069294;28;20028;-72
2023/04/06 01:42:48;;;;;;;10.73;9.57;;;;;;;2.86;74.32;101658.34;5068937;28;20040;-72
2023/04/06 01:45:14;;;;;;;10.85;9.32;;;;;;;2.93;73.84;101653.09;5069174;28;20033;-74
2023/04/06 01:47:39;;;;;;;9.73;8.55;;;;;;;3.00;73.24;101640.63;5067496;28;20036;-74
2023/04/06 01:50:06;;;;;;;10.93;8.65;;;;;;;3.06;74.71;101646.25;5069957;28;20104;-62
2023/04/06 01:52:32;;;;;;;9.20;8.30;;;;;;;3.11;73.22;101651.19;5066575;28;20399;-70
2023/04/06 01:54:57;;;;;;;11.70;9.07;;;;;;;3.15;72.54;101643.56;5069640;28;20031;-73
2023/04/06 01:57:22;;;;;;;10.15;8.85;;;;;;;3.22;70.61;101648.16;5068602;28;20360;-73
2023/04/06 01:59:48;;;;;;;10.68;9.18;;;;;;;3.27;70.00;101642.25;5068833;28;20036;-73
2023/04/06 02:02:13;;;;;;;10.45;8.85;;;;;;;3.32;69.69;101640.75;5067760;28;20463;-74
2023/04/06 02:04:39;;;;;;;10.98;9.40;;;;;;;3.33;71.21;101631.59;5066903;28;20056;-73
2023/04/06 02:07:04;;;;;;;10.95;9.25;;;;;;;3.34;71.64;101627.00;5050791;28;20056;-69
2023/04/06 02:09:30;;;;;;;11.40;9.35;;;;;;;3.39;69.69;101619.22;5067488;28;20462;-71
2023/04/06 02:11:55;;;;;;;10.23;9.15;;;;;;;3.39;71.16;101628.19;5068219;28;20086;-74
2023/04/06 02:14:21;;;;;;;12.05;9.68;;;;;;;3.43;70.73;101623.31;5068521;28;20027;-67
2023/04/06 02:16:46;;;;;;;10.95;9.60;;;;;;;3.42;72.38;101618.03;5068117;28;20029;-72
2023/04/06 02:19:11;;;;;;;11.25;10.10;;;;;;;3.42;76.61;101613.47;5068493;28;20421;-74
2023/04/06 02:21:37;;;;;;;10.35;9.25;;;;;;;3.37;75.91;101613.09;5067385;28;20040;-70
2023/04/06 02:24:02;;;;;;;10.40;9.30;;;;;;;3.35;76.08;101604.28;5068501;28;20020;-66
2023/04/06 02:26:27;;;;;;;11.65;10.20;;;;;;;3.33;78.12;101606.31;5068465;28;20029;-72
2023/04/06 02:28:52;;;;;;;11.13;9.85;;;;;;;3.27;78.20;101606.97;5068965;28;20020;-73
2023/04/06 02:31:18;;;;;;;11.55;10.35;;;;;;;3.27;75.36;101609.69;5067059;28;20024;-71
2023/04/06 02:33:43;;;;;;;12.43;10.40;;;;;;;3.24;77.68;101599.13;5066661;28;20071;-73
2023/04/06 02:36:08;;;;;;;11.00;9.90;;;;;;;3.23;79.78;101598.28;5068284;28;20114;-69
2023/04/06 02:38:33;;;;;;;11.15;10.05;;;;;;;3.23;78.30;101597.44;5067736;28;20035;-67
2023/04/06 02:40:59;;;;;;;11.60;10.43;;;;;;;3.26;79.33;101602.56;5068853;28;20036;-71
2023/04/06 02:43:24;;;;;;;11.75;10.48;;;;;;;3.33;75.82;101599.00;5067455;28;20391;-74
2023/04/06 02:45:49;;;;;;;11.88;10.48;;;;;;;3.39;73.60;101592.91;5067785;28;20037;-69
2023/04/06 02:48:15;;;;;;;12.65;10.70;;;;;;;3.48;73.36;101590.22;5066879;28;20070;-73
2023/04/06 02:50:40;;;;;;;11.82;10.52;;;;;;;3.59;71.18;101582.59;5068165;28;20111;-74
2023/04/06 02:53:06;;;;;;;12.45;11.13;;;;;;;3.67;71.40;101579.06;5067557;28;20418;-63
2023/04/06 02:55:31;;;;;;;12.85;11.13;;;;;;;3.73;70.63;101578.38;5067883;28;20082;-67
2023/04/06 02:57:56;;;;;;;11.93;10.45;;;;;;;3.76;71.01;101578.06;5067291;28;20056;-73
2023/04/06 03:00:22;;;;;;;11.93;10.65;;;;;;;3.80;70.63;101575.84;5067092;28;20029;-74
2023/04/06 03:02:47;;;;;;;12.20;10.85;;;;;;;3.81;70.20;101572.97;5065844;28;20054;-74
2023/04/06 03:05:12;;;;;;;12.27;10.90;;;;;;;3.82;70.96;101565.66;5065708;28;20020;-64
2023/04/06 03:07:37;;;;;;;12.35;10.95;;;;;;;3.82;70.10;101568.38;5066622;28;20494;-74
2023/04/06 03:10:03;;;;;;;11.30;10.10;;;;;;;3.84;70.44;101577.19;5066628;28;20039;-73
2023/04/06 03:12:28;;;;;;;12.90;11.10;;;;;;;3.82;71.16;101571.94;5066509;28;20064;-70
2023/04/06 03:14:54;;;;;;;13.40;11.63;;;;;;;3.85;70.32;101570.75;5066268;28;20145;-71
2023/04/06 03:17:19;;;;;;;13.32;11.80;;;;;;;3.85;70.56;101568.03;5066286;28;20399;-74
2023/04/06 03:19:44;;;;;;;12.68;10.80;;;;;;;3.86;70.50;101575.19;5067850;28;20020;-65
2023/04/06 03:22:10;;;;;;;13.63;12.23;;;;;;;3.87;71.55;101563.28;5066529;28;20669;-70
2023/04/06 03:24:35;;;;;;;12.80;11.50;;;;;;;3.85;71.03;101563.47;5067591;28;20036;-65
2023/04/06 03:27:01;;;;;;;13.73;11.70;;;;;;;3.83;71.00;101556.50;5067870;28;20907;-67
2023/04/06 03:29:27;;;;;;;12.88;11.35;;;;;;;3.84;70.47;101550.03;5065211;28;20063;-68
2023/04/06 03:31:52;;;;;;;13.65;12.23;;;;;;;3.83;72.19;101556.50;5055915;28;20116;-73
2023/04/06 03:34:17;;;;;;;13.13;11.70;;;;;;;3.81;71.20;101553.09;5067114;28;20032;-73
2023/04/06 03:36:42;;;;;;;12.98;11.68;;;;;;;3.78;72.34;101557.00;5067932;28;20111;-74
2023/04/06 03:39:08;;;;;;;13.77;12.38;;;;;;;3.78;72.39;101550.72;5066552;28;20082;-73
2023/04/06 03:41:33;;;;;;;13.90;12.50;;;;;;;3.75;73.75;101553.75;5066360;28;20146;-62
2023/04/06 03:43:58;;;;;;;13.43;12.00;;;;;;;3.71;74.52;101555.13;5067039;28;20086;-69
2023/04/06 03:46:24;;;;;;;14.48;12.40;;;;;;;3.69;74.98;101546.28;5064944;28;20594;-73
2023/04/06 03:48:49;;;;;;;14.18;12.77;;;;;;;3.62;76.02;101549.69;5067621;28;20024;-74
2023/04/06 03:51:14;;;;;;;13.43;12.13;;;;;;;3.58;76.65;101552.91;5066735;28;20111;-69
2023/04/06 03:53:40;;;;;;;14.32;12.93;;;;;;;3.58;78.43;101550.19;5066590;28;20060;-73
2023/04/06 03:56:05;;;;;;;14.63;13.10;;;;;;;3.55;80.06;101555.97;5067189;28;20409;-74
2023/04/06 03:58:31;;;;;;;14.27;12.85;;;;;;;3.53;79.56;101552.56;5065878;28;20414;-66
2023/04/06 04:00:56;;;;;;;14.13;12.77;;;;;;;3.46;77.97;101538.81;5066367;28;20435;-69
2023/04/06 04:03:23;;;;;;;13.73;12.23;;;;;;;3.43;77.40;101549.13;5063595;28;20032;-71
2023/04/06 04:05:49;;;;;;;13.77;12.27;;;;;;;3.41;76.49;101543.88;5066731;28;20025;-73
2023/04/06 04:08:15;;;;;;;14.13;12.80;;;;;;;3.39;75.53;101552.19;5065928;28;20037;-73
2023/04/06 04:10:40;;;;;;;14.05;12.65;;;;;;;3.39;76.47;101551.31;5066269;28;20029;-67
2023/04/06 04:13:05;;;;;;;14.13;11.88;;;;;;;3.41;75.56;101549.31;5065689;28;20043;-64
2023/04/06 04:15:30;;;;;;;13.52;12.23;;;;;;;3.42;75.34;101548.28;5066819;28;20463;-63
2023/04/06 04:17:56;;;;;;;14.48;12.75;;;;;;;3.43;74.82;101547.28;5063350;28;20028;-74
2023/04/06 04:20:21;;;;;;;14.00;12.57;;;;;;;3.45;75.47;101547.97;5067075;28;20612;-72
2023/04/06 04:22:47;;;;;;;14.13;12.68;;;;;;;3.44;74.92;101550.84;5062319;28;20032;-73
2023/04/06 04:25:13;;;;;;;14.45;12.98;;;;;;;3.42;75.87;101550.16;5067156;28;20037;-63
2023/04/06 04:27:38;;;;;;;13.88;12.45;;;;;;;3.39;76.32;101554.88;5065060;28;20409;-68
2023/04/06 04:30:04;;;;;;;14.32;12.82;;;;;;;3.36;77.96;101551.69;5067189;28;20089;-68
2023/04/06 04:32:30;;;;;;;14.55;13.05;;;;;;;3.30;77.83;101544.22;5064779;28;20027;-72
2023/04/06 04:34:55;;;;;;;14.80;13.38;;;;;;;3.31;78.29;101551.34;5051621;28;20514;-74
2023/04/06 04:37:20;;;;;;;14.25;12.85;;;;;;;3.31;78.77;101543.19;5069622;28;20488;-72
2023/04/06 04:39:46;;;;;;;15.70;14.10;;;;;;;3.29;78.55;101545.19;5071373;28;20029;-74
2023/04/06 04:42:11;;;;;;;14.20;12.73;;;;;;;3.27;78.26;101547.25;5069556;28;20028;-70
2023/04/06 04:44:36;;;;;;;14.65;13.23;;;;;;;3.25;78.79;101543.84;5068336;28;20037;-73
2023/04/06 04:47:02;;;;;;;14.30;12.90;;;;;;;3.25;78.97;101538.44;5070103;28;20463;-73
2023/04/06 04:49:27;;;;;;;14.15;12.75;;;;;;;3.26;78.66;101534.69;5070287;28;20024;-74
2023/04/06 04:51:52;;;;;;;15.20;13.65;;;;;;;3.23;79.47;101529.59;5070346;28;20608;-74
2023/04/06 04:54:19;;;;;;;13.85;12.50;;;;;;;3.23;79.28;101537.72;5069223;28;20217;-74
2023/04/06 04:56:45;;;;;;;14.45;13.02;;;;;;;3.24;80.17;101539.41;5064182;28;20034;-70
2023/04/06 04:59:10;;;;;;;15.43;13.93;;;;;;;3.26;81.43;101534.69;5068893;28;20107;-63
2023/04/06 05:01:35;;;;;;;15.30;13.60;;;;;;;3.31;81.96;101533.16;5068266;28;20108;-63
2023/04/06 05:04:00;;;;;;;14.07;12.73;;;;;;;3.32;80.19;101536.72;5068104;28;20250;-73
2023/04/06 05:06:26;;;;;;;15.43;14.00;;;;;;;3.36;81.50;101538.94;5068256;28;20028;-74
2023/04/06 05:08:51;;;;;;;15.15;13.65;;;;;;;3.35;81.04;101537.25;5066709;28;20033;-74
2023/04/06 05:11:16;;;;;;;15.32;13.82;;;;;;;3.35;79.65;101541.84;5068747;28;20032;-68
2023/04/06 05:13:42;;;;;;;14.60;13.15;;;;;;;3.37;79.73;101537.09;5068771;28;20038;-68
2023/04/06 05:16:07;;;;;;;14.93;13.40;;;;;;;3.38;81.84;101538.78;5068512;28;20074;-73
2023/04/06 05:18:32;;;;;;;15.57;13.98;;;;;;;3.41;80.33;101534.91;5068976;28;20057;-74
2023/04/06 05:20:58;;;;;;;14.93;13.52;;;;;;;3.45;79.30;101531.69;5068994;28;20471;-74
2023/04/06 05:23:23;;;;;;;15.60;14.10;;;;;;;3.48;80.30;101528.59;5067689;28;20051;-72
2023/04/06 05:25:49;;;;;;;15.20;13.60;;;;;;;3.49;80.20;101535.72;5068509;28;20391;-72
2023/04/06 05:28:15;;;;;;;14.25;12.82;;;;;;;3.53;79.54;101528.97;5068465;28;20025;-68
2023/04/06 05:30:42;;;;;;;15.02;13.43;;;;;;;3.56;80.11;101530.50;5068847;28;20032;-71
2023/04/06 05:33:07;;;;;;;15.00;13.50;;;;;;;3.59;79.25;101533.72;5068239;28;20522;-74
2023/04/06 05:35:33;;;;;;;15.70;14.15;;;;;;;3.64;79.62;101530.50;5068246;28;20049;-74
2023/04/06 05:37:58;;;;;;;15.13;13.73;;;;;;;3.69;79.91;101532.69;5068997;28;20044;-68
2023/04/06 05:40:23;;;;;;;15.65;14.15;;;;;;;3.70;79.08;101529.84;5067542;28;20027;-71
2023/04/06 05:42:50;;;;;;;14.50;13.00;;;;;;;3.73;77.84;101525.91;5068583;28;20028;-69
2023/04/06 05:45:18;;;;;;;14.32;12.75;;;;;;;3.74;78.15;101520.31;5065614;28;20017;-68
2023/04/06 05:47:44;;;;;;;;;;;;;;;3.81;76.93;101524.06;5067938;28;20456;-75
2023/04/06 05:50:10;;;;;;;13.60;12.30;;;;;;;3.82;76.30;101523.03;5069760;28;19919;-69
2023/04/06 05:52:35;;;;;;;13.52;12.13;;;;;;;3.84;76.52;101526.41;5066094;28;20090;-63
2023/04/06 05:55:00;;;;;;;15.13;13.55;;;;;;;3.88;76.48;101524.22;5064644;28;20021;-75
2023/04/06 05:57:26;;;;;;;15.07;13.48;;;;;;;3.88;76.82;101524.22;5068459;28;20040;-75
2023/04/06 05:59:51;;;;;;;14.70;13.23;;;;;;;3.93;76.47;101524.56;5067296;28;20024;-74
2023/04/06 06:02:17;;;;;;;14.40;13.00;;;;;;;3.98;76.98;101526.78;5067263;28;20038;-73
2023/04/06 06:04:42;;;;;;;14.85;13.40;;;;;;;4.01;75.92;101521.84;5068795;28;20403;-69
2023/04/06 06:07:07;;;;;;;14.85;13.35;;;;;;;4.05;75.97;101522.34;5069054;28;20025;-67
2023/04/06 06:09:32;;;;;;;13.18;11.70;;;;;;;4.11;74.32;101514.38;5069076;28;20032;-73
2023/04/06 06:11:58;;;;;;;14.77;13.18;;;;;;;4.16;75.64;101517.41;5069049;28;20029;-69
2023/04/06 06:14:23;;;;;;;13.75;12.35;;;;;;;4.22;76.03;101517.75;5069185;28;20033;-74
2023/04/06 06:16:48;;;;;;;14.43;13.02;;;;;;;4.28;75.07;101517.03;5067608;28;20037;-74
2023/04/06 06:19:13;;;;;;;14.38;12.63;;;;;;;4.34;74.10;101522.63;5068793;28;20364;-75
2023/04/06 06:21:39;;;;;;;14.23;12.82;;;;;;;4.42;74.51;101533.50;5069122;28;20132;-72
2023/04/06 06:24:05;;;;;;;14.55;12.90;;;;;;;4.57;74.43;101539.06;5069071;28;20474;-69
2023/04/06 06:26:30;;;;;;;13.93;12.38;;;;;;;4.73;71.75;101531.88;5066382;28;20038;-76
2023/04/06 06:28:55;;;;;;;14.07;12.57;;;;;;;4.82;71.07;101522.66;5068714;28;20661;-76
2023/04/06 06:31:22;;;;;;;13.93;12.57;;;;;;;4.88;72.09;101527.41;5066719;28;20044;-69
2023/04/06 06:33:50;;;;;;;13.88;12.43;;;;;;;4.95;72.00;101533.81;5068743;28;20028;-75
2023/04/06 06:36:15;;;;;;;12.98;11.68;;;;;;;5.00;72.23;101536.00;5069056;28;20041;-75
2023/04/06 06:38:41;;;;;;;14.20;12.55;;;;;;;5.03;71.66;101528.34;5067687;28;20028;-76
2023/04/06 06:41:06;;;;;;;13.35;11.95;;;;;;;5.06;70.53;101533.41;5064489;28;20545;-75
2023/04/06 06:43:31;;;;;;;13.27;11.98;;;;;;;5.09;70.09;101532.22;5067221;28;20036;-76
2023/04/06 06:45:58;;;;;;;13.25;11.85;;;;;;;5.14;69.78;101532.53;5067157;28;20111;-76
2023/04/06 06:48:23;;;;;;;13.63;12.23;;;;;;;5.19;69.58;101533.69;5067926;28;20028;-71
2023/04/06 06:50:49;;;;;;;13.52;12.23;;;;;;;5.25;69.96;101528.56;5068469;28;20035;-73
2023/04/06 06:53:15;;;;;;;14.02;12.32;;;;;;;5.23;69.82;101528.75;5067525;28;20028;-67
2023/04/06 06:55:40;;;;;;;13.63;11.77;;;;;;;5.26;70.36;101527.53;5068103;28;20017;-75
2023/04/06 06:58:06;;;;;;;13.52;12.13;;;;;;;5.29;70.49;101530.75;5066515;28;20043;-65
2023/04/06 07:00:32;;;;;;;13.70;12.30;;;;;;;5.30;70.29;101529.72;5078713;28;20024;-75
2023/04/06 07:02:57;;;;;;;13.07;11.70;;;;;;;5.34;69.13;101522.06;5087193;28;20032;-68
2023/04/06 07:05:22;;;;;;;13.52;11.88;;;;;;;5.36;70.17;101515.38;5088387;28;20381;-74
2023/04/06 07:07:47;;;;;;;13.10;11.80;;;;;;;5.41;69.35;101510.22;5068991;28;20036;-62
2023/04/06 07:10:13;;;;;;;13.20;11.90;;;;;;;5.45;69.20;101510.72;5067476;28;20491;-67
2023/04/06 07:12:38;;;;;;;13.45;11.68;;;;;;;5.52;69.81;101516.28;5068051;28;20043;-76
2023/04/06 07:15:04;;;;;;;13.90;12.43;;;;;;;5.55;69.63;101516.78;5066201;28;20024;-76
2023/04/06 07:17:30;;;;;;;13.63;12.13;;;;;;;5.61;68.46;101516.06;5064060;28;20024;-71
2023/04/06 07:19:55;;;;;;;13.45;12.13;;;;;;;5.64;68.42;101509.41;5067122;28;20694;-72
2023/04/06 07:22:20;;;;;;;13.70;12.23;;;;;;;5.70;68.40;101508.69;5065147;28;20034;-72
2023/04/06 07:24:45;;;;;;;14.23;12.77;;;;;;;5.72;68.92;101506.59;5049743;28;20032;-74
2023/04/06 07:27:11;;;;;;;13.00;11.55;;;;;;;5.80;68.32;101511.16;5067375;28;20625;-66
2023/04/06 07:29:36;;;;;;;14.77;11.95;;;;;;;5.83;68.75;101505.31;5067529;28;20107;-72
2023/04/06 07:32:01;;;;;;;14.05;12.65;;;;;;;5.87;68.55;101503.94;5067150;28;20047;-74
2023/04/06 07:34:27;;;;;;;14.13;12.63;;;;;;;5.89;68.18;101507.34;5066789;28;20135;-67
2023/04/06 07:36:53;;;;;;;14.13;12.70;;;;;;;5.95;68.29;101509.34;5066344;28;20119;-65
2023/04/06 07:39:19;;;;;;;14.55;12.23;;;;;;;5.99;68.50;101507.97;5066361;28;20032;-74
2023/04/06 07:41:44;;;;;;;13.23;11.93;;;;;;;6.07;67.71;101499.69;5067728;28;20021;-65
2023/04/06 07:44:09;;;;;;;14.93;13.50;;;;;;;6.10;68.35;101501.19;5066992;28;20036;-72
2023/04/06 07:46:35;;;;;;;13.98;12.52;;;;;;;6.17;66.54;101494.81;5066594;28;20032;-71
2023/04/06 07:49:01;;;;;;;12.95;11.65;;;;;;;6.16;67.29;101506.75;5066738;28;20028;-71
2023/04/06 07:51:26;;;;;;;14.23;11.88;;;;;;;6.28;67.98;101498.09;5049159;28;20113;-70
2023/04/06 07:53:52;;;;;;;13.52;12.00;;;;;;;6.35;66.37;101493.63;5066337;28;20024;-74
2023/04/06 07:56:17;;;;;;;13.38;12.05;;;;;;;6.41;66.47;101506.50;5049026;28;20025;-75
2023/04/06 07:58:43;;;;;;;13.25;11.95;;;;;;;6.48;66.80;101502.81;5067141;28;20031;-68
2023/04/06 08:01:08;;;;;;;12.57;11.27;;;;;;;6.56;66.69;101501.06;5066105;28;20028;-68
2023/04/06 08:03:34;;;;;;;13.13;11.82;;;;;;;6.61;65.84;101498.59;5065020;28;20395;-68
2023/04/06 08:06:00;;;;;;;13.75;12.35;;;;;;;6.64;66.39;101507.28;5066039;28;20071;-71
2023/04/06 08:08:25;;;;;;;13.38;12.02;;;;;;;6.74;67.99;101502.38;5065079;28;20044;-74
2023/04/06 08:10:50;;;;;;;12.70;11.40;;;;;;;6.80;65.56;101500.75;5066827;28;20106;-75
2023/04/06 08:13:16;;;;;;;12.82;11.52;;;;;;;6.85;64.95;101502.94;5046932;28;20029;-74
2023/04/06 08:15:41;;;;;;;13.23;11.77;;;;;;;6.88;65.11;101497.06;5065930;28;20028;-67
2023/04/06 08:18:08;;;;;;;14.77;11.63;;;;;;;6.90;66.35;101503.19;5046232;28;20023;-62
2023/04/06 08:20:34;;;;;;;13.98;12.20;;;;;;;6.93;64.76;101506.38;5065273;28;20435;-69
2023/04/06 08:22:59;;;;;;;13.23;11.88;;;;;;;6.96;64.68;101495.09;5065025;28;20021;-70
2023/04/06 08:25:25;;;;;;;13.05;11.75;;;;;;;7.04;65.35;101505.03;5064288;28;20119;-71
2023/04/06 08:27:50;;;;;;;13.73;12.40;;;;;;;7.14;66.17;101511.03;5069519;28;20059;-71
2023/04/06 08:30:15;;;;;;;13.48;12.07;;;;;;;7.18;65.61;101504.16;5068650;28;20052;-71
2023/04/06 08:32:41;;;;;;;13.23;11.38;;;;;;;7.24;64.84;101497.91;5067090;28;20021;-74
2023/04/06 08:35:07;;;;;;;13.63;12.15;;;;;;;7.34;64.71;101510.44;5075016;28;20055;-70
2023/04/06 08:37:33;;;;;;;14.05;12.60;;;;;;;7.39;62.38;101507.97;5064522;28;20032;-69
2023/04/06 08:39:58;;;;;;;14.10;11.63;;;;;;;7.46;61.88;101509.75;5064273;28;20411;-72
2023/04/06 08:42:26;;;;;;;13.60;12.15;;;;;;;7.56;62.91;101512.16;5064931;28;20021;-64
2023/04/06 08:44:52;;;;;;;13.95;11.50;;;;;;;7.64;61.90;101509.28;5064400;28;20048;-66
2023/04/06 08:47:18;;;;;;;13.30;11.55;;;;;;;7.67;62.25;101508.91;5063396;28;20071;-74
2023/04/06 08:49:45;;;;;;;12.50;11.23;;;;;;;7.76;61.27;101515.94;5074498;28;20056;-75
2023/04/06 08:52:11;;;;;;;12.17;10.93;;;;;;;7.84;61.35;101509.47;5061523;28;20044;-73
2023/04/06 08:54:37;;;;;;;14.07;11.82;;;;;;;7.91;60.91;101510.41;5064679;28;20166;-73
2023/04/06 08:57:04;;;;;;;12.57;11.27;;;;;;;7.90;61.57;101508.69;5062720;28;20059;-74
2023/04/06 08:59:30;;;;;;;14.80;11.15;;;;;;;8.01;62.05;101510.06;5061672;28;20032;-74
2023/04/06 09:01:56;;;;;;;12.90;11.50;;;;;;;8.09;61.59;101512.63;5059564;28;20125;-74
2023/04/06 09:04:21;;;;;;;12.60;11.07;;;;;;;8.11;61.63;101509.69;5062342;28;20479;-72
2023/04/06 09:06:47;;;;;;;12.43;11.15;;;;;;;8.20;62.47;101509.34;5056885;28;20028;-66
2023/04/06 09:09:12;;;;;;;12.35;11.05;;;;;;;8.39;63.37;101509.72;5063971;28;20032;-65
2023/04/06 09:12:01;;;;;;;13.93;12.43;;;;;;;8.47;62.93;101515.91;5064987;28;20075;-73
2023/04/06 09:14:37;;;;;;;12.77;11.45;;;;;;;8.52;63.41;101512.56;5063495;28;20072;-65
2023/04/06 09:17:04;;;;;;;13.63;11.40;;;;;;;8.61;63.68;101516.81;5054752;28;20024;-75
2023/04/06 09:19:29;;;;;;;13.30;11.82;;;;;;;8.67;63.11;101513.28;5066120;28;20028;-73
2023/04/06 09:22:04;;;;;;;12.98;11.57;;;;;;;8.80;62.58;101512.50;5064881;28;20658;-75
2023/04/06 09:24:40;;;;;;;12.77;11.45;;;;;;;8.85;62.70;101512.75;5057497;28;20051;-73
2023/04/06 09:27:05;;;;;;;13.35;12.00;;;;;;;8.92;63.19;101513.63;5064627;28;20606;-68
2023/04/06 09:29:31;;;;;;;12.13;10.88;;;;;;;9.04;63.05;101513.88;5058489;28;20017;-70
2023/04/06 09:32:10;;;;;;;13.07;11.43;;;;;;;9.18;65.63;101518.38;5061524;28;20021;-76
2023/04/06 09:34:35;;;;;;;12.48;11.18;;;;;;;9.33;64.00;101510.84;5065582;28;20070;-64
2023/04/06 09:37:01;;;;;;;13.10;10.93;;;;;;;9.36;63.93;101509.56;5067881;28;20063;-74
2023/04/06 09:39:26;;;;;;;13.25;11.45;;;;;;;9.43;64.50;101510.44;5064717;28;20021;-71
2023/04/06 09:41:54;;;;;;;12.38;11.18;;;;;;;9.42;64.89;101510.63;5061379;28;20024;-65
2023/04/06 09:44:20;;;;;;;13.10;11.70;;;;;;;9.45;64.61;101519.31;5067667;28;20542;-69
2023/04/06 09:46:46;;;;;;;12.77;10.85;;;;;;;9.48;65.11;101507.94;5066713;28;20302;-72
2023/04/06 09:49:13;;;;;;;13.40;11.07;;;;;;;9.57;66.35;101512.16;5067486;28;20020;-71
2023/04/06 09:51:46;;;;;;;13.23;11.82;;;;;;;9.75;66.57;101508.81;5075814;28;20039;-74
2023/04/06 09:54:17;;;;;;;12.52;11.23;;;;;;;9.76;66.18;101513.25;5051105;28;20474;-76
2023/04/06 09:56:53;;;;;;;11.07;9.38;;;;;;;9.67;66.57;101503.50;5069683;28;20020;-73
2023/04/06 09:59:36;;;;;;;9.95;8.95;;;;;;;9.60;66.83;101517.22;5069151;28;20495;-75
2023/04/06 10:02:05;;;;;;;10.50;9.32;;;;;;;9.52;67.67;101519.31;5068142;28;20024;-76
2023/04/06 10:04:47;;;;;;;10.60;9.50;;;;;;;9.48;69.33;101516.16;5068682;28;20124;-64
2023/04/06 10:07:15;;;;;;;9.77;8.77;;;;;;;9.47;69.04;101510.84;5067787;28;20021;-75
2023/04/06 10:09:43;;;;;;;10.45;8.75;;;;;;;9.46;70.44;101520.13;5068997;28;20024;-67
2023/04/06 10:12:09;;;;;;;10.38;8.65;;;;;;;9.38;71.36;101512.97;5066862;28;20390;-73
2023/04/06 10:14:36;;;;;;;10.55;9.52;;;;;;;9.30;73.08;101527.69;5067858;28;20033;-76
2023/04/06 10:17:05;;;;;;;10.02;8.10;;;;;;;9.24;71.96;101525.78;5068046;28;20520;-76
2023/04/06 10:19:39;;;;;;;;;;;;;;;9.28;70.41;101518.00;5068338;28;20025;-71
2023/04/06 10:22:06;;;;;;;10.15;8.95;;;;;;;9.12;75.88;101527.41;5065099;28;19922;-69
2023/04/06 10:24:31;;;;;;;10.70;8.77;;;;;;;9.10;77.17;101527.59;5068691;28;20375;-75
2023/04/06 10:27:02;;;;;;;10.38;8.50;;;;;;;9.08;77.30;101526.97;5050974;28;20023;-76
2023/04/06 10:29:28;;;;;;;10.35;8.63;;;;;;;8.98;78.05;101521.03;5068635;28;20116;-73
2023/04/06 10:31:55;;;;;;;9.93;8.60;;;;;;;8.97;77.82;101526.69;5067539;28;20112;-70
2023/04/06 10:34:20;;;;;;;9.77;8.30;;;;;;;9.00;79.89;101523.56;5067983;28;20565;-63
2023/04/06 10:36:45;;;;;;;10.45;8.40;;;;;;;8.96;79.04;101516.78;5066493;28;20048;-72
2023/04/06 10:39:11;;;;;;;9.10;7.10;;;;;;;8.92;78.12;101519.13;5067599;28;20145;-76
2023/04/06 10:41:44;;;;;;;9.32;7.43;;;;;;;8.77;80.66;101526.63;5050490;28;20085;-75
2023/04/06 10:44:23;;;;;;;8.70;6.50;;;;;;;8.80;79.40;101524.31;5067358;28;20102;-76
2023/04/06 10:46:56;;;;;;;7.57;6.63;;;;;;;8.75;80.50;101523.22;5066908;28;20032;-74
2023/04/06 10:49:21;;;;;;;8.43;6.80;;;;;;;8.62;81.54;101523.13;5068022;28;20032;-73
2023/04/06 10:51:54;;;;;;;10.55;7.50;;;;;;;8.52;83.16;101518.88;5065980;28;20020;-74
2023/04/06 10:54:22;;;;;;;36.53;10.82;;;;;;;8.49;82.92;101521.16;5057955;28;20025;-75
2023/04/06 10:56:47;;;;;;;26.13;9.25;;;;;;;8.45;84.80;101511.66;5068319;28;20030;-73
2023/04/06 10:59:13;;;;;;;7.65;6.20;;;;;;;8.47;84.98;101515.91;5067112;28;20032;-69
2023/04/06 11:01:38;;;;;;;8.43;7.10;;;;;;;8.45;86.03;101511.66;5067518;28;20116;-68
2023/04/06 11:04:03;;;;;;;8.63;6.18;;;;;;;8.43;85.73;101508.28;5068609;28;20074;-67
2023/04/06 11:06:31;;;;;;;8.82;6.57;;;;;;;8.29;86.89;101508.16;5067647;28;20527;-74
2023/04/06 11:08:57;;;;;;;8.80;6.55;;;;;;;8.22;86.02;101512.75;5067769;28;20021;-74
2023/04/06 11:11:26;;;;;;;8.05;6.15;;;;;;;8.19;87.65;101498.59;5064941;28;20037;-69
2023/04/06 11:13:59;;;;;;;8.38;5.93;;;;;;;8.18;89.79;101494.19;5064776;28;20078;-71
2023/04/06 11:16:31;;;;;;;8.30;5.90;;;;;;;8.11;88.19;101498.75;5064025;28;20032;-65